sensor_id;sensor_type;location;lat;lon;timestamp;P1;durP1;ratioP1;P2;durP2;ratioP2
63945;SDS011;50122;56.330;43.838;2023-08-06T13:18:10;5.72;;;2.00;;
63945;SDS011;50122;56.330;43.838;2023-08-06T13:20:38;5.05;;;1.60;;
63945;SDS011;50122;56.330;43.838;2023-08-06T13:23:06;6.72;;;1.95;;
63945;SDS011;50122;56.330;43.838;2023-08-06T13:25:33;4.55;;;1.90;;
63945;SDS011;50122;56.330;43.838;2023-08-06T13:28:06;4.57;;;1.52;;
63945;SDS011;50122;56.330;43.838;2023-08-06T13:30:33;3.78;;;1.80;;
63945;SDS011;50122;56.330;43.838;2023-08-06T13:33:03;8.10;;;2.08;;
63945;SDS011;50122;56.330;43.838;2023-08-06T13:38:04;5.82;;;1.60;;
63945;SDS011;50122;56.330;43.838;2023-08-06T13:40:33;5.03;;;1.55;;
63945;SDS011;50122;56.330;43.838;2023-08-06T13:43:01;3.05;;;1.60;;
63945;SDS011;50122;56.330;43.838;2023-08-06T13:45:28;4.22;;;1.58;;
63945;SDS011;50122;56.330;43.838;2023-08-06T13:47:58;7.57;;;1.60;;
63945;SDS011;50122;56.330;43.838;2023-08-06T13:50:27;3.88;;;1.50;;
63945;SDS011;50122;56.330;43.838;2023-08-06T13:53:00;3.78;;;1.70;;
63945;SDS011;50122;56.330;43.838;2023-08-06T13:55:27;3.63;;;1.70;;
63945;SDS011;50122;56.330;43.838;2023-08-06T13:57:55;4.18;;;1.73;;
63945;SDS011;50122;56.330;43.838;2023-08-06T14:00:22;4.15;;;1.60;;
63945;SDS011;50122;56.330;43.838;2023-08-06T14:02:49;8.50;;;1.65;;
63945;SDS011;50122;56.330;43.838;2023-08-06T14:05:17;5.00;;;1.88;;
63945;SDS011;50122;56.330;43.838;2023-08-06T14:07:44;5.68;;;1.60;;
63945;SDS011;50122;56.330;43.838;2023-08-06T14:10:11;3.05;;;1.48;;
63945;SDS011;50122;56.330;43.838;2023-08-06T14:12:38;4.57;;;1.70;;
63945;SDS011;50122;56.330;43.838;2023-08-06T14:15:05;6.43;;;1.60;;
63945;SDS011;50122;56.330;43.838;2023-08-06T14:17:32;4.55;;;1.58;;
63945;SDS011;50122;56.330;43.838;2023-08-06T14:20:00;2.85;;;1.40;;
63945;SDS011;50122;56.330;43.838;2023-08-06T14:22:27;3.55;;;1.70;;
63945;SDS011;50122;56.330;43.838;2023-08-06T14:24:54;4.72;;;1.80;;
63945;SDS011;50122;56.330;43.838;2023-08-06T14:27:21;11.48;;;2.08;;
63945;SDS011;50122;56.330;43.838;2023-08-06T14:29:48;10.27;;;2.10;;
63945;SDS011;50122;56.330;43.838;2023-08-06T14:32:14;4.95;;;1.80;;
63945;SDS011;50122;56.330;43.838;2023-08-06T14:34:44;4.43;;;1.50;;
63945;SDS011;50122;56.330;43.838;2023-08-06T14:37:11;4.13;;;1.63;;
63945;SDS011;50122;56.330;43.838;2023-08-06T14:39:38;6.78;;;1.70;;
63945;SDS011;50122;56.330;43.838;2023-08-06T14:42:04;6.38;;;1.85;;
63945;SDS011;50122;56.330;43.838;2023-08-06T14:44:31;10.07;;;1.70;;
63945;SDS011;50122;56.330;43.838;2023-08-06T14:46:58;3.45;;;1.52;;
63945;SDS011;50122;56.330;43.838;2023-08-06T14:49:27;7.10;;;1.70;;
63945;SDS011;50122;56.330;43.838;2023-08-06T14:51:54;4.68;;;1.70;;
63945;SDS011;50122;56.330;43.838;2023-08-06T14:54:21;6.07;;;1.95;;
63945;SDS011;50122;56.330;43.838;2023-08-06T14:56:49;4.85;;;2.00;;
63945;SDS011;50122;56.330;43.838;2023-08-06T14:59:16;5.70;;;2.00;;
63945;SDS011;50122;56.330;43.838;2023-08-06T15:01:42;5.63;;;1.80;;
63945;SDS011;50122;56.330;43.838;2023-08-06T15:04:09;5.38;;;1.70;;
63945;SDS011;50122;56.330;43.838;2023-08-06T15:06:36;4.28;;;1.70;;
63945;SDS011;50122;56.330;43.838;2023-08-06T15:09:03;9.25;;;6.85;;
63945;SDS011;50122;56.330;43.838;2023-08-06T15:11:33;5.25;;;2.08;;
63945;SDS011;50122;56.330;43.838;2023-08-06T15:14:00;3.97;;;1.65;;
63945;SDS011;50122;56.330;43.838;2023-08-06T15:16:27;5.03;;;1.80;;
63945;SDS011;50122;56.330;43.838;2023-08-06T15:18:56;3.83;;;1.77;;
63945;SDS011;50122;56.330;43.838;2023-08-06T15:21:23;5.25;;;1.80;;
63945;SDS011;50122;56.330;43.838;2023-08-06T15:23:49;9.63;;;1.90;;
63945;SDS011;50122;56.330;43.838;2023-08-06T15:26:17;7.82;;;2.22;;
63945;SDS011;50122;56.330;43.838;2023-08-06T15:28:44;7.82;;;2.03;;
63945;SDS011;50122;56.330;43.838;2023-08-06T15:31:10;6.75;;;2.47;;
63945;SDS011;50122;56.330;43.838;2023-08-06T15:33:37;6.03;;;2.13;;
63945;SDS011;50122;56.330;43.838;2023-08-06T15:36:04;9.93;;;2.17;;
63945;SDS011;50122;56.330;43.838;2023-08-06T15:38:31;7.90;;;2.22;;
63945;SDS011;50122;56.330;43.838;2023-08-06T15:40:59;6.40;;;2.47;;
63945;SDS011;50122;56.330;43.838;2023-08-06T15:43:26;6.18;;;2.38;;
63945;SDS011;50122;56.330;43.838;2023-08-06T15:45:55;9.20;;;6.55;;
63945;SDS011;50122;56.330;43.838;2023-08-06T15:48:31;27.05;;;13.32;;
63945;SDS011;50122;56.330;43.838;2023-08-06T15:50:59;38.60;;;12.18;;
63945;SDS011;50122;56.330;43.838;2023-08-06T15:53:28;58.05;;;7.95;;
63945;SDS011;50122;56.330;43.838;2023-08-06T15:55:55;28.70;;;14.07;;
63945;SDS011;50122;56.330;43.838;2023-08-06T15:58:22;31.73;;;21.90;;
63945;SDS011;50122;56.330;43.838;2023-08-06T16:00:54;10.43;;;6.45;;
63945;SDS011;50122;56.330;43.838;2023-08-06T16:03:20;7.80;;;3.67;;
63945;SDS011;50122;56.330;43.838;2023-08-06T16:05:50;7.57;;;3.08;;
63945;SDS011;50122;56.330;43.838;2023-08-06T16:08:17;10.75;;;3.00;;
63945;SDS011;50122;56.330;43.838;2023-08-06T16:10:48;7.30;;;2.60;;
63945;SDS011;50122;56.330;43.838;2023-08-06T16:13:16;6.05;;;2.90;;
63945;SDS011;50122;56.330;43.838;2023-08-06T16:15:43;7.60;;;3.08;;
63945;SDS011;50122;56.330;43.838;2023-08-06T16:18:10;12.32;;;3.05;;
63945;SDS011;50122;56.330;43.838;2023-08-06T16:20:41;14.98;;;3.30;;
63945;SDS011;50122;56.330;43.838;2023-08-06T16:23:10;112.35;;;7.28;;
63945;SDS011;50122;56.330;43.838;2023-08-06T16:25:38;49.35;;;5.13;;
63945;SDS011;50122;56.330;43.838;2023-08-06T16:28:06;85.13;;;6.30;;
63945;SDS011;50122;56.330;43.838;2023-08-06T16:30:44;140.07;;;9.48;;
63945;SDS011;50122;56.330;43.838;2023-08-06T16:33:13;110.80;;;7.72;;
63945;SDS011;50122;56.330;43.838;2023-08-06T16:35:40;99.47;;;7.45;;
63945;SDS011;50122;56.330;43.838;2023-08-06T16:38:09;63.58;;;6.53;;
63945;SDS011;50122;56.330;43.838;2023-08-06T16:40:37;50.33;;;5.07;;
63945;SDS011;50122;56.330;43.838;2023-08-06T16:43:03;37.08;;;5.10;;
63945;SDS011;50122;56.330;43.838;2023-08-06T16:45:30;42.08;;;4.65;;
63945;SDS011;50122;56.330;43.838;2023-08-06T16:48:04;31.23;;;4.72;;
63945;SDS011;50122;56.330;43.838;2023-08-06T16:50:38;28.08;;;4.72;;
63945;SDS011;50122;56.330;43.838;2023-08-06T16:53:20;19.35;;;9.63;;
63945;SDS011;50122;56.330;43.838;2023-08-06T16:55:49;12.15;;;4.05;;
63945;SDS011;50122;56.330;43.838;2023-08-06T16:58:16;11.23;;;3.70;;
63945;SDS011;50122;56.330;43.838;2023-08-06T17:00:47;10.88;;;3.90;;
63945;SDS011;50122;56.330;43.838;2023-08-06T17:03:18;13.77;;;3.85;;
63945;SDS011;50122;56.330;43.838;2023-08-06T17:05:51;15.73;;;4.00;;
63945;SDS011;50122;56.330;43.838;2023-08-06T17:08:27;13.82;;;4.25;;
63945;SDS011;50122;56.330;43.838;2023-08-06T17:11:02;11.50;;;3.85;;
63945;SDS011;50122;56.330;43.838;2023-08-06T17:13:29;8.55;;;3.65;;
63945;SDS011;50122;56.330;43.838;2023-08-06T17:15:56;10.52;;;3.72;;
63945;SDS011;50122;56.330;43.838;2023-08-06T17:18:25;10.63;;;3.95;;
63945;SDS011;50122;56.330;43.838;2023-08-06T17:20:52;13.07;;;4.20;;
63945;SDS011;50122;56.330;43.838;2023-08-06T17:27:10;14.45;;;4.72;;
63945;SDS011;50122;56.330;43.838;2023-08-06T17:29:59;11.35;;;4.97;;
63945;SDS011;50122;56.330;43.838;2023-08-06T17:35:29;41.10;;;6.18;;
63945;SDS011;50122;56.330;43.838;2023-08-06T17:38:16;30.30;;;5.60;;
63945;SDS011;50122;56.330;43.838;2023-08-06T17:41:06;29.45;;;5.40;;
63945;SDS011;50122;56.330;43.838;2023-08-06T17:43:50;85.22;;;9.02;;
63945;SDS011;50122;56.330;43.838;2023-08-06T17:46:20;123.47;;;10.93;;
63945;SDS011;50122;56.330;43.838;2023-08-06T17:49:14;64.63;;;8.45;;
63945;SDS011;50122;56.330;43.838;2023-08-06T17:51:49;23.55;;;7.00;;
63945;SDS011;50122;56.330;43.838;2023-08-06T17:54:16;29.35;;;7.80;;
63945;SDS011;50122;56.330;43.838;2023-08-06T17:56:53;25.88;;;5.95;;
63945;SDS011;50122;56.330;43.838;2023-08-06T17:59:25;29.42;;;6.22;;
63945;SDS011;50122;56.330;43.838;2023-08-06T18:05:26;22.60;;;5.85;;
63945;SDS011;50122;56.330;43.838;2023-08-06T18:08:01;13.90;;;5.60;;
63945;SDS011;50122;56.330;43.838;2023-08-06T18:10:31;14.32;;;5.07;;
63945;SDS011;50122;56.330;43.838;2023-08-06T18:12:58;10.68;;;5.50;;
63945;SDS011;50122;56.330;43.838;2023-08-06T18:15:24;15.07;;;5.78;;
63945;SDS011;50122;56.330;43.838;2023-08-06T18:17:53;12.07;;;5.85;;
63945;SDS011;50122;56.330;43.838;2023-08-06T18:20:22;11.15;;;5.10;;
63945;SDS011;50122;56.330;43.838;2023-08-06T18:22:48;16.77;;;5.43;;
63945;SDS011;50122;56.330;43.838;2023-08-06T18:25:17;24.70;;;6.18;;
63945;SDS011;50122;56.330;43.838;2023-08-06T18:27:44;25.10;;;6.25;;
63945;SDS011;50122;56.330;43.838;2023-08-06T18:30:11;21.10;;;6.45;;
63945;SDS011;50122;56.330;43.838;2023-08-06T18:32:38;20.15;;;5.38;;
63945;SDS011;50122;56.330;43.838;2023-08-06T18:35:04;12.45;;;4.82;;
63945;SDS011;50122;56.330;43.838;2023-08-06T18:37:31;15.07;;;5.43;;
63945;SDS011;50122;56.330;43.838;2023-08-06T18:40:03;14.55;;;5.45;;
63945;SDS011;50122;56.330;43.838;2023-08-06T18:42:33;14.27;;;5.30;;
63945;SDS011;50122;56.330;43.838;2023-08-06T18:45:01;14.10;;;5.35;;
63945;SDS011;50122;56.330;43.838;2023-08-06T18:47:27;14.75;;;5.57;;
63945;SDS011;50122;56.330;43.838;2023-08-06T18:49:54;12.05;;;5.22;;
63945;SDS011;50122;56.330;43.838;2023-08-06T18:52:21;13.23;;;5.25;;
63945;SDS011;50122;56.330;43.838;2023-08-06T18:54:48;36.60;;;6.40;;
63945;SDS011;50122;56.330;43.838;2023-08-06T18:57:15;34.15;;;5.95;;
63945;SDS011;50122;56.330;43.838;2023-08-06T18:59:42;41.50;;;6.70;;
63945;SDS011;50122;56.330;43.838;2023-08-06T19:02:10;34.08;;;6.38;;
63945;SDS011;50122;56.330;43.838;2023-08-06T19:04:36;116.55;;;9.32;;
63945;SDS011;50122;56.330;43.838;2023-08-06T19:07:04;90.38;;;8.85;;
63945;SDS011;50122;56.330;43.838;2023-08-06T19:09:31;32.65;;;6.75;;
63945;SDS011;50122;56.330;43.838;2023-08-06T19:11:58;27.02;;;7.32;;
63945;SDS011;50122;56.330;43.838;2023-08-06T19:14:25;23.08;;;7.30;;
63945;SDS011;50122;56.330;43.838;2023-08-06T19:16:54;25.77;;;7.40;;
63945;SDS011;50122;56.330;43.838;2023-08-06T19:19:25;26.20;;;7.32;;
63945;SDS011;50122;56.330;43.838;2023-08-06T19:21:52;28.73;;;8.15;;
63945;SDS011;50122;56.330;43.838;2023-08-06T19:24:19;26.85;;;6.93;;
63945;SDS011;50122;56.330;43.838;2023-08-06T19:26:46;27.35;;;7.07;;
63945;SDS011;50122;56.330;43.838;2023-08-06T19:29:13;26.45;;;7.20;;
63945;SDS011;50122;56.330;43.838;2023-08-06T19:31:40;25.92;;;7.30;;
63945;SDS011;50122;56.330;43.838;2023-08-06T19:34:25;35.40;;;7.75;;
63945;SDS011;50122;56.330;43.838;2023-08-06T19:36:52;43.55;;;7.97;;
63945;SDS011;50122;56.330;43.838;2023-08-06T19:39:18;31.23;;;8.20;;
63945;SDS011;50122;56.330;43.838;2023-08-06T19:41:45;30.73;;;8.60;;
63945;SDS011;50122;56.330;43.838;2023-08-06T19:44:12;27.05;;;7.90;;
63945;SDS011;50122;56.330;43.838;2023-08-06T19:46:38;28.13;;;7.50;;
63945;SDS011;50122;56.330;43.838;2023-08-06T19:49:05;28.58;;;8.18;;
63945;SDS011;50122;56.330;43.838;2023-08-06T19:51:33;20.70;;;7.20;;
63945;SDS011;50122;56.330;43.838;2023-08-06T19:54:03;17.95;;;6.53;;
63945;SDS011;50122;56.330;43.838;2023-08-06T19:56:30;21.08;;;7.40;;
63945;SDS011;50122;56.330;43.838;2023-08-06T19:58:56;24.13;;;6.78;;
63945;SDS011;50122;56.330;43.838;2023-08-06T20:01:23;20.55;;;7.18;;
63945;SDS011;50122;56.330;43.838;2023-08-06T20:03:55;27.73;;;7.15;;
63945;SDS011;50122;56.330;43.838;2023-08-06T20:06:22;33.65;;;6.70;;
63945;SDS011;50122;56.330;43.838;2023-08-06T20:08:55;23.35;;;6.65;;
63945;SDS011;50122;56.330;43.838;2023-08-06T20:11:22;30.58;;;6.72;;
63945;SDS011;50122;56.330;43.838;2023-08-06T20:13:49;30.23;;;6.72;;
63945;SDS011;50122;56.330;43.838;2023-08-06T20:16:16;22.95;;;6.60;;
63945;SDS011;50122;56.330;43.838;2023-08-06T20:18:44;20.23;;;6.57;;
63945;SDS011;50122;56.330;43.838;2023-08-06T20:21:10;21.40;;;6.38;;
63945;SDS011;50122;56.330;43.838;2023-08-06T20:23:37;26.38;;;6.15;;
63945;SDS011;50122;56.330;43.838;2023-08-06T20:26:04;27.42;;;6.28;;
63945;SDS011;50122;56.330;43.838;2023-08-06T20:28:31;18.05;;;5.85;;
63945;SDS011;50122;56.330;43.838;2023-08-06T20:31:00;17.30;;;6.05;;
63945;SDS011;50122;56.330;43.838;2023-08-06T20:33:27;15.90;;;5.78;;
63945;SDS011;50122;56.330;43.838;2023-08-06T20:35:56;16.77;;;5.60;;
63945;SDS011;50122;56.330;43.838;2023-08-06T20:38:23;21.73;;;5.82;;
63945;SDS011;50122;56.330;43.838;2023-08-06T20:40:52;15.18;;;5.25;;
63945;SDS011;50122;56.330;43.838;2023-08-06T20:43:24;17.95;;;5.85;;
63945;SDS011;50122;56.330;43.838;2023-08-06T20:45:52;17.20;;;5.90;;
63945;SDS011;50122;56.330;43.838;2023-08-06T20:48:24;16.48;;;5.35;;
63945;SDS011;50122;56.330;43.838;2023-08-06T20:50:51;13.48;;;5.30;;
63945;SDS011;50122;56.330;43.838;2023-08-06T20:53:18;18.33;;;5.63;;
63945;SDS011;50122;56.330;43.838;2023-08-06T20:55:56;16.27;;;5.70;;
63945;SDS011;50122;56.330;43.838;2023-08-06T20:58:24;20.85;;;6.25;;
63945;SDS011;50122;56.330;43.838;2023-08-06T21:00:51;17.75;;;6.50;;
63945;SDS011;50122;56.330;43.838;2023-08-06T21:03:22;16.55;;;6.32;;
63945;SDS011;50122;56.330;43.838;2023-08-06T21:06:05;14.55;;;6.05;;
63945;SDS011;50122;56.330;43.838;2023-08-06T21:08:35;17.20;;;5.70;;
63945;SDS011;50122;56.330;43.838;2023-08-06T21:11:02;14.27;;;5.70;;
63945;SDS011;50122;56.330;43.838;2023-08-06T21:13:30;17.45;;;6.43;;
63945;SDS011;50122;56.330;43.838;2023-08-06T21:16:01;14.60;;;6.63;;
63945;SDS011;50122;56.330;43.838;2023-08-06T21:18:36;13.57;;;6.32;;
63945;SDS011;50122;56.330;43.838;2023-08-06T21:21:03;14.13;;;6.10;;
63945;SDS011;50122;56.330;43.838;2023-08-06T21:23:32;22.70;;;5.93;;
63945;SDS011;50122;56.330;43.838;2023-08-06T21:25:59;40.67;;;7.05;;
63945;SDS011;50122;56.330;43.838;2023-08-06T21:28:30;19.80;;;5.90;;
63945;SDS011;50122;56.330;43.838;2023-08-06T21:30:59;15.25;;;6.13;;
63945;SDS011;50122;56.330;43.838;2023-08-06T21:33:28;22.17;;;7.00;;
63945;SDS011;50122;56.330;43.838;2023-08-06T21:35:57;17.48;;;5.97;;
63945;SDS011;50122;56.330;43.838;2023-08-06T21:38:28;13.40;;;6.03;;
63945;SDS011;50122;56.330;43.838;2023-08-06T21:41:05;16.60;;;6.00;;
63945;SDS011;50122;56.330;43.838;2023-08-06T21:43:41;12.82;;;6.20;;
63945;SDS011;50122;56.330;43.838;2023-08-06T21:46:11;12.80;;;5.88;;
63945;SDS011;50122;56.330;43.838;2023-08-06T21:48:43;12.30;;;5.88;;
63945;SDS011;50122;56.330;43.838;2023-08-06T21:51:16;10.65;;;5.43;;
63945;SDS011;50122;56.330;43.838;2023-08-06T21:53:47;13.30;;;6.60;;
63945;SDS011;50122;56.330;43.838;2023-08-06T21:56:14;12.57;;;5.55;;
63945;SDS011;50122;56.330;43.838;2023-08-06T21:58:48;12.50;;;5.47;;
63945;SDS011;50122;56.330;43.838;2023-08-06T22:01:20;18.50;;;5.75;;
63945;SDS011;50122;56.330;43.838;2023-08-06T22:03:47;13.50;;;5.63;;
63945;SDS011;50122;56.330;43.838;2023-08-06T22:06:15;14.75;;;5.75;;
63945;SDS011;50122;56.330;43.838;2023-08-06T22:08:44;10.30;;;5.40;;
63945;SDS011;50122;56.330;43.838;2023-08-06T22:11:11;12.40;;;5.75;;
63945;SDS011;50122;56.330;43.838;2023-08-06T22:13:37;10.68;;;5.68;;
63945;SDS011;50122;56.330;43.838;2023-08-06T22:16:06;14.63;;;5.65;;
63945;SDS011;50122;56.330;43.838;2023-08-06T22:18:35;11.32;;;5.30;;
63945;SDS011;50122;56.330;43.838;2023-08-06T22:21:03;13.32;;;6.25;;
63945;SDS011;50122;56.330;43.838;2023-08-06T22:23:30;10.32;;;6.10;;
63945;SDS011;50122;56.330;43.838;2023-08-06T22:25:57;14.60;;;6.22;;
63945;SDS011;50122;56.330;43.838;2023-08-06T22:28:24;12.20;;;6.03;;
63945;SDS011;50122;56.330;43.838;2023-08-06T22:30:51;11.32;;;6.53;;
63945;SDS011;50122;56.330;43.838;2023-08-06T22:33:19;12.30;;;5.90;;
63945;SDS011;50122;56.330;43.838;2023-08-06T22:35:48;14.85;;;5.88;;
63945;SDS011;50122;56.330;43.838;2023-08-06T22:38:17;9.05;;;5.25;;
63945;SDS011;50122;56.330;43.838;2023-08-06T22:40:44;13.23;;;6.20;;
63945;SDS011;50122;56.330;43.838;2023-08-06T22:43:11;14.40;;;5.75;;
63945;SDS011;50122;56.330;43.838;2023-08-06T22:45:38;18.63;;;5.68;;
63945;SDS011;50122;56.330;43.838;2023-08-06T22:48:04;27.50;;;6.50;;
63945;SDS011;50122;56.330;43.838;2023-08-06T22:50:31;28.73;;;6.90;;
63945;SDS011;50122;56.330;43.838;2023-08-06T22:52:58;17.75;;;6.13;;
63945;SDS011;50122;56.330;43.838;2023-08-06T22:55:25;16.15;;;5.93;;
63945;SDS011;50122;56.330;43.838;2023-08-06T22:58:12;15.00;;;5.90;;
63945;SDS011;50122;56.330;43.838;2023-08-06T23:00:40;17.15;;;6.57;;
63945;SDS011;50122;56.330;43.838;2023-08-06T23:03:06;14.40;;;5.85;;
63945;SDS011;50122;56.330;43.838;2023-08-06T23:05:38;16.85;;;6.45;;
63945;SDS011;50122;56.330;43.838;2023-08-06T23:08:07;19.63;;;6.35;;
63945;SDS011;50122;56.330;43.838;2023-08-06T23:10:34;18.17;;;6.10;;
63945;SDS011;50122;56.330;43.838;2023-08-06T23:13:01;13.35;;;5.80;;
63945;SDS011;50122;56.330;43.838;2023-08-06T23:15:28;15.05;;;5.75;;
63945;SDS011;50122;56.330;43.838;2023-08-06T23:17:55;13.00;;;5.53;;
63945;SDS011;50122;56.330;43.838;2023-08-06T23:20:23;19.40;;;6.20;;
63945;SDS011;50122;56.330;43.838;2023-08-06T23:22:49;13.95;;;5.50;;
63945;SDS011;50122;56.330;43.838;2023-08-06T23:25:16;11.18;;;5.60;;
63945;SDS011;50122;56.330;43.838;2023-08-06T23:27:43;12.45;;;5.47;;
63945;SDS011;50122;56.330;43.838;2023-08-06T23:30:10;11.95;;;5.75;;
63945;SDS011;50122;56.330;43.838;2023-08-06T23:32:37;8.35;;;5.00;;
63945;SDS011;50122;56.330;43.838;2023-08-06T23:35:04;15.57;;;5.40;;
63945;SDS011;50122;56.330;43.838;2023-08-06T23:37:31;14.32;;;5.30;;
63945;SDS011;50122;56.330;43.838;2023-08-06T23:39:59;13.98;;;5.72;;
63945;SDS011;50122;56.330;43.838;2023-08-06T23:42:26;14.43;;;5.65;;
63945;SDS011;50122;56.330;43.838;2023-08-06T23:44:55;17.20;;;5.65;;
63945;SDS011;50122;56.330;43.838;2023-08-06T23:47:21;12.05;;;5.75;;
63945;SDS011;50122;56.330;43.838;2023-08-06T23:49:48;11.65;;;5.68;;
63945;SDS011;50122;56.330;43.838;2023-08-06T23:52:15;9.57;;;5.50;;
63945;SDS011;50122;56.330;43.838;2023-08-06T23:54:41;8.90;;;5.35;;
63945;SDS011;50122;56.330;43.838;2023-08-06T23:57:08;13.07;;;5.47;;
63945;SDS011;50122;56.330;43.838;2023-08-06T23:59:35;12.38;;;5.63;;
